sensor_id;sensor_type;location;lat;lon;timestamp;P1;durP1;ratioP1;P2;durP2;ratioP2
69877;SDS011;70037;51.190;6.808;2023-09-18T00:00:12;2.27;;;1.93;;
69877;SDS011;70037;51.190;6.808;2023-09-18T00:01:12;3.40;;;2.10;;
69877;SDS011;70037;51.190;6.808;2023-09-18T00:02:12;2.87;;;2.03;;
69877;SDS011;70037;51.190;6.808;2023-09-18T00:03:12;4.27;;;2.13;;
69877;SDS011;70037;51.190;6.808;2023-09-18T00:04:12;3.33;;;2.07;;
69877;SDS011;70037;51.190;6.808;2023-09-18T00:05:12;2.50;;;2.30;;
69877;SDS011;70037;51.190;6.808;2023-09-18T00:06:13;3.30;;;2.40;;
69877;SDS011;70037;51.190;6.808;2023-09-18T00:07:13;2.60;;;2.33;;
69877;SDS011;70037;51.190;6.808;2023-09-18T00:08:13;2.30;;;2.10;;
69877;SDS011;70037;51.190;6.808;2023-09-18T00:09:13;6.00;;;2.75;;
69877;SDS011;70037;51.190;6.808;2023-09-18T00:10:13;4.47;;;2.40;;
69877;SDS011;70037;51.190;6.808;2023-09-18T00:11:14;3.80;;;2.00;;
69877;SDS011;70037;51.190;6.808;2023-09-18T00:12:14;2.80;;;1.87;;
69877;SDS011;70037;51.190;6.808;2023-09-18T00:13:14;2.87;;;2.37;;
69877;SDS011;70037;51.190;6.808;2023-09-18T00:14:14;2.43;;;2.17;;
69877;SDS011;70037;51.190;6.808;2023-09-18T00:15:14;3.00;;;2.13;;
69877;SDS011;70037;51.190;6.808;2023-09-18T00:16:14;3.23;;;2.23;;
69877;SDS011;70037;51.190;6.808;2023-09-18T00:17:14;2.57;;;1.90;;
69877;SDS011;70037;51.190;6.808;2023-09-18T00:18:15;3.90;;;2.23;;
69877;SDS011;70037;51.190;6.808;2023-09-18T00:19:15;3.90;;;2.20;;
69877;SDS011;70037;51.190;6.808;2023-09-18T00:20:15;3.10;;;2.20;;
69877;SDS011;70037;51.190;6.808;2023-09-18T00:21:15;3.20;;;2.10;;
69877;SDS011;70037;51.190;6.808;2023-09-18T00:22:16;2.27;;;2.07;;
69877;SDS011;70037;51.190;6.808;2023-09-18T00:23:16;2.90;;;2.37;;
69877;SDS011;70037;51.190;6.808;2023-09-18T00:24:16;4.17;;;2.20;;
69877;SDS011;70037;51.190;6.808;2023-09-18T00:25:16;2.97;;;2.10;;
69877;SDS011;70037;51.190;6.808;2023-09-18T00:26:16;3.20;;;2.50;;
69877;SDS011;70037;51.190;6.808;2023-09-18T00:27:16;2.80;;;2.30;;
69877;SDS011;70037;51.190;6.808;2023-09-18T00:28:16;3.03;;;2.00;;
69877;SDS011;70037;51.190;6.808;2023-09-18T00:29:16;4.20;;;2.30;;
69877;SDS011;70037;51.190;6.808;2023-09-18T00:30:16;3.23;;;2.10;;
69877;SDS011;70037;51.190;6.808;2023-09-18T00:31:16;3.97;;;1.90;;
69877;SDS011;70037;51.190;6.808;2023-09-18T00:32:17;4.23;;;2.53;;
69877;SDS011;70037;51.190;6.808;2023-09-18T00:33:17;2.70;;;1.90;;
69877;SDS011;70037;51.190;6.808;2023-09-18T00:34:17;2.83;;;2.05;;
69877;SDS011;70037;51.190;6.808;2023-09-18T00:35:17;3.07;;;2.13;;
69877;SDS011;70037;51.190;6.808;2023-09-18T00:36:17;2.87;;;2.13;;
69877;SDS011;70037;51.190;6.808;2023-09-18T00:37:17;3.47;;;2.10;;
69877;SDS011;70037;51.190;6.808;2023-09-18T00:38:18;2.27;;;1.83;;
69877;SDS011;70037;51.190;6.808;2023-09-18T00:39:18;2.40;;;1.97;;
69877;SDS011;70037;51.190;6.808;2023-09-18T00:40:18;2.80;;;2.17;;
69877;SDS011;70037;51.190;6.808;2023-09-18T00:41:18;2.22;;;1.90;;
69877;SDS011;70037;51.190;6.808;2023-09-18T00:42:18;2.33;;;1.93;;
69877;SDS011;70037;51.190;6.808;2023-09-18T00:43:18;2.83;;;2.10;;
69877;SDS011;70037;51.190;6.808;2023-09-18T00:44:19;2.90;;;2.37;;
69877;SDS011;70037;51.190;6.808;2023-09-18T00:45:19;3.67;;;2.35;;
69877;SDS011;70037;51.190;6.808;2023-09-18T00:46:20;2.43;;;1.93;;
69877;SDS011;70037;51.190;6.808;2023-09-18T00:47:20;2.93;;;2.17;;
69877;SDS011;70037;51.190;6.808;2023-09-18T00:48:20;3.43;;;1.87;;
69877;SDS011;70037;51.190;6.808;2023-09-18T00:49:20;3.42;;;2.22;;
69877;SDS011;70037;51.190;6.808;2023-09-18T00:50:21;2.10;;;1.83;;
69877;SDS011;70037;51.190;6.808;2023-09-18T00:51:21;3.17;;;1.93;;
69877;SDS011;70037;51.190;6.808;2023-09-18T00:52:21;4.20;;;2.40;;
69877;SDS011;70037;51.190;6.808;2023-09-18T00:53:23;2.10;;;1.90;;
69877;SDS011;70037;51.190;6.808;2023-09-18T00:54:23;2.88;;;2.10;;
69877;SDS011;70037;51.190;6.808;2023-09-18T00:55:23;3.80;;;2.13;;
69877;SDS011;70037;51.190;6.808;2023-09-18T00:56:23;3.27;;;2.13;;
69877;SDS011;70037;51.190;6.808;2023-09-18T00:57:23;5.27;;;2.27;;
69877;SDS011;70037;51.190;6.808;2023-09-18T00:58:24;5.10;;;2.50;;
69877;SDS011;70037;51.190;6.808;2023-09-18T00:59:24;2.78;;;2.30;;
69877;SDS011;70037;51.190;6.808;2023-09-18T01:00:24;2.33;;;2.03;;
69877;SDS011;70037;51.190;6.808;2023-09-18T01:01:25;4.93;;;2.30;;
69877;SDS011;70037;51.190;6.808;2023-09-18T01:02:25;2.83;;;2.10;;
69877;SDS011;70037;51.190;6.808;2023-09-18T01:03:25;2.03;;;1.83;;
69877;SDS011;70037;51.190;6.808;2023-09-18T01:04:25;3.90;;;1.93;;
69877;SDS011;70037;51.190;6.808;2023-09-18T01:05:26;7.90;;;2.25;;
69877;SDS011;70037;51.190;6.808;2023-09-18T01:06:28;3.40;;;1.73;;
69877;SDS011;70037;51.190;6.808;2023-09-18T01:07:28;2.75;;;2.40;;
69877;SDS011;70037;51.190;6.808;2023-09-18T01:08:28;2.67;;;2.10;;
69877;SDS011;70037;51.190;6.808;2023-09-18T01:09:28;3.93;;;1.93;;
69877;SDS011;70037;51.190;6.808;2023-09-18T01:10:30;4.37;;;2.33;;
69877;SDS011;70037;51.190;6.808;2023-09-18T01:13:53;2.85;;;2.28;;
69877;SDS011;70037;51.190;6.808;2023-09-18T01:16:08;3.22;;;2.50;;
69877;SDS011;70037;51.190;6.808;2023-09-18T01:17:09;3.35;;;2.47;;
69877;SDS011;70037;51.190;6.808;2023-09-18T01:18:09;2.10;;;1.80;;
69877;SDS011;70037;51.190;6.808;2023-09-18T01:19:10;2.57;;;1.90;;
69877;SDS011;70037;51.190;6.808;2023-09-18T01:20:10;2.47;;;2.20;;
69877;SDS011;70037;51.190;6.808;2023-09-18T01:21:10;2.40;;;2.10;;
69877;SDS011;70037;51.190;6.808;2023-09-18T01:22:11;2.10;;;1.90;;
69877;SDS011;70037;51.190;6.808;2023-09-18T01:23:11;3.42;;;2.00;;
69877;SDS011;70037;51.190;6.808;2023-09-18T01:24:11;3.63;;;2.30;;
69877;SDS011;70037;51.190;6.808;2023-09-18T01:25:11;2.73;;;1.90;;
69877;SDS011;70037;51.190;6.808;2023-09-18T01:26:11;4.10;;;2.00;;
69877;SDS011;70037;51.190;6.808;2023-09-18T01:27:12;2.20;;;1.90;;
69877;SDS011;70037;51.190;6.808;2023-09-18T01:28:12;2.50;;;2.00;;
69877;SDS011;70037;51.190;6.808;2023-09-18T01:29:12;3.43;;;2.30;;
69877;SDS011;70037;51.190;6.808;2023-09-18T01:30:13;3.37;;;2.13;;
69877;SDS011;70037;51.190;6.808;2023-09-18T01:31:13;3.07;;;1.90;;
69877;SDS011;70037;51.190;6.808;2023-09-18T01:32:13;2.97;;;2.10;;
69877;SDS011;70037;51.190;6.808;2023-09-18T01:33:13;2.22;;;1.98;;
69877;SDS011;70037;51.190;6.808;2023-09-18T01:34:28;3.53;;;2.35;;
69877;SDS011;70037;51.190;6.808;2023-09-18T01:35:29;3.58;;;2.13;;
69877;SDS011;70037;51.190;6.808;2023-09-18T01:36:31;2.95;;;2.10;;
69877;SDS011;70037;51.190;6.808;2023-09-18T01:37:31;2.77;;;1.83;;
69877;SDS011;70037;51.190;6.808;2023-09-18T01:38:32;2.33;;;1.80;;
69877;SDS011;70037;51.190;6.808;2023-09-18T01:39:32;2.25;;;1.98;;
69877;SDS011;70037;51.190;6.808;2023-09-18T01:40:33;4.05;;;2.20;;
69877;SDS011;70037;51.190;6.808;2023-09-18T01:41:33;2.42;;;2.20;;
69877;SDS011;70037;51.190;6.808;2023-09-18T01:42:34;3.37;;;2.00;;
69877;SDS011;70037;51.190;6.808;2023-09-18T01:43:34;2.33;;;2.10;;
69877;SDS011;70037;51.190;6.808;2023-09-18T01:44:35;2.40;;;1.83;;
69877;SDS011;70037;51.190;6.808;2023-09-18T01:45:35;3.03;;;1.92;;
69877;SDS011;70037;51.190;6.808;2023-09-18T01:46:36;2.67;;;1.88;;
69877;SDS011;70037;51.190;6.808;2023-09-18T01:47:36;2.17;;;1.97;;
69877;SDS011;70037;51.190;6.808;2023-09-18T01:48:36;2.77;;;2.00;;
69877;SDS011;70037;51.190;6.808;2023-09-18T01:49:37;2.40;;;2.20;;
69877;SDS011;70037;51.190;6.808;2023-09-18T01:50:37;2.75;;;2.10;;
69877;SDS011;70037;51.190;6.808;2023-09-18T01:51:37;2.33;;;1.80;;
69877;SDS011;70037;51.190;6.808;2023-09-18T01:52:37;3.47;;;2.20;;
69877;SDS011;70037;51.190;6.808;2023-09-18T01:53:37;2.63;;;2.20;;
69877;SDS011;70037;51.190;6.808;2023-09-18T01:54:37;3.30;;;2.00;;
69877;SDS011;70037;51.190;6.808;2023-09-18T01:55:37;2.73;;;2.37;;
69877;SDS011;70037;51.190;6.808;2023-09-18T01:56:37;2.30;;;1.87;;
69877;SDS011;70037;51.190;6.808;2023-09-18T01:57:37;2.53;;;1.73;;
69877;SDS011;70037;51.190;6.808;2023-09-18T01:58:38;2.77;;;2.20;;
69877;SDS011;70037;51.190;6.808;2023-09-18T01:59:38;2.77;;;2.20;;
69877;SDS011;70037;51.190;6.808;2023-09-18T02:00:38;2.43;;;2.00;;
69877;SDS011;70037;51.190;6.808;2023-09-18T02:01:38;2.97;;;2.27;;
69877;SDS011;70037;51.190;6.808;2023-09-18T02:02:38;4.57;;;1.97;;
69877;SDS011;70037;51.190;6.808;2023-09-18T02:03:38;4.43;;;2.47;;
69877;SDS011;70037;51.190;6.808;2023-09-18T02:04:38;2.40;;;2.20;;
69877;SDS011;70037;51.190;6.808;2023-09-18T02:05:39;3.00;;;2.17;;
69877;SDS011;70037;51.190;6.808;2023-09-18T02:06:39;2.80;;;2.00;;
69877;SDS011;70037;51.190;6.808;2023-09-18T02:07:40;2.33;;;2.10;;
69877;SDS011;70037;51.190;6.808;2023-09-18T02:08:40;2.13;;;1.93;;
69877;SDS011;70037;51.190;6.808;2023-09-18T02:09:40;3.30;;;2.40;;
69877;SDS011;70037;51.190;6.808;2023-09-18T02:10:40;2.37;;;2.07;;
69877;SDS011;70037;51.190;6.808;2023-09-18T02:11:41;2.10;;;1.83;;
69877;SDS011;70037;51.190;6.808;2023-09-18T02:12:41;3.17;;;2.00;;
69877;SDS011;70037;51.190;6.808;2023-09-18T02:13:41;3.00;;;2.40;;
69877;SDS011;70037;51.190;6.808;2023-09-18T02:14:41;3.90;;;2.17;;
69877;SDS011;70037;51.190;6.808;2023-09-18T02:15:41;2.70;;;2.20;;
69877;SDS011;70037;51.190;6.808;2023-09-18T02:16:43;3.47;;;2.45;;
69877;SDS011;70037;51.190;6.808;2023-09-18T02:17:43;2.30;;;1.97;;
69877;SDS011;70037;51.190;6.808;2023-09-18T02:18:43;2.97;;;2.23;;
69877;SDS011;70037;51.190;6.808;2023-09-18T02:19:43;3.53;;;2.20;;
69877;SDS011;70037;51.190;6.808;2023-09-18T02:20:43;5.27;;;2.30;;
69877;SDS011;70037;51.190;6.808;2023-09-18T02:21:43;2.80;;;2.27;;
69877;SDS011;70037;51.190;6.808;2023-09-18T02:22:43;2.60;;;2.13;;
69877;SDS011;70037;51.190;6.808;2023-09-18T02:23:44;3.27;;;2.37;;
69877;SDS011;70037;51.190;6.808;2023-09-18T02:24:44;2.53;;;2.07;;
69877;SDS011;70037;51.190;6.808;2023-09-18T02:25:44;3.70;;;2.60;;
69877;SDS011;70037;51.190;6.808;2023-09-18T02:26:44;2.30;;;2.00;;
69877;SDS011;70037;51.190;6.808;2023-09-18T02:27:44;3.73;;;2.30;;
69877;SDS011;70037;51.190;6.808;2023-09-18T02:28:44;2.40;;;2.10;;
69877;SDS011;70037;51.190;6.808;2023-09-18T02:29:44;3.13;;;2.10;;
69877;SDS011;70037;51.190;6.808;2023-09-18T02:30:45;2.80;;;1.83;;
69877;SDS011;70037;51.190;6.808;2023-09-18T02:31:45;3.43;;;1.97;;
69877;SDS011;70037;51.190;6.808;2023-09-18T02:32:45;2.43;;;2.07;;
69877;SDS011;70037;51.190;6.808;2023-09-18T02:33:45;1.93;;;1.80;;
69877;SDS011;70037;51.190;6.808;2023-09-18T02:34:45;2.70;;;2.17;;
69877;SDS011;70037;51.190;6.808;2023-09-18T02:35:45;3.80;;;2.07;;
69877;SDS011;70037;51.190;6.808;2023-09-18T02:36:45;4.90;;;2.13;;
69877;SDS011;70037;51.190;6.808;2023-09-18T02:37:45;2.00;;;1.80;;
69877;SDS011;70037;51.190;6.808;2023-09-18T02:38:45;3.27;;;2.17;;
69877;SDS011;70037;51.190;6.808;2023-09-18T02:39:45;3.27;;;2.20;;
69877;SDS011;70037;51.190;6.808;2023-09-18T02:40:46;2.77;;;1.93;;
69877;SDS011;70037;51.190;6.808;2023-09-18T02:41:46;2.83;;;2.13;;
69877;SDS011;70037;51.190;6.808;2023-09-18T02:42:46;2.03;;;1.83;;
69877;SDS011;70037;51.190;6.808;2023-09-18T02:43:46;3.87;;;2.23;;
69877;SDS011;70037;51.190;6.808;2023-09-18T02:44:46;3.37;;;2.60;;
69877;SDS011;70037;51.190;6.808;2023-09-18T02:45:46;2.30;;;1.90;;
69877;SDS011;70037;51.190;6.808;2023-09-18T02:46:46;2.40;;;2.10;;
69877;SDS011;70037;51.190;6.808;2023-09-18T02:47:46;2.00;;;1.80;;
69877;SDS011;70037;51.190;6.808;2023-09-18T02:48:46;3.40;;;2.10;;
69877;SDS011;70037;51.190;6.808;2023-09-18T02:49:46;2.70;;;2.00;;
69877;SDS011;70037;51.190;6.808;2023-09-18T02:50:47;2.40;;;2.20;;
69877;SDS011;70037;51.190;6.808;2023-09-18T02:51:47;2.97;;;2.50;;
69877;SDS011;70037;51.190;6.808;2023-09-18T02:52:47;2.70;;;1.70;;
69877;SDS011;70037;51.190;6.808;2023-09-18T02:53:47;2.00;;;1.80;;
69877;SDS011;70037;51.190;6.808;2023-09-18T02:54:47;2.73;;;2.40;;
69877;SDS011;70037;51.190;6.808;2023-09-18T02:55:48;3.80;;;2.20;;
69877;SDS011;70037;51.190;6.808;2023-09-18T02:56:48;3.15;;;2.20;;
69877;SDS011;70037;51.190;6.808;2023-09-18T02:57:48;3.23;;;2.30;;
69877;SDS011;70037;51.190;6.808;2023-09-18T02:58:48;3.17;;;2.00;;
69877;SDS011;70037;51.190;6.808;2023-09-18T02:59:48;2.00;;;1.70;;
69877;SDS011;70037;51.190;6.808;2023-09-18T03:00:49;2.23;;;2.00;;
69877;SDS011;70037;51.190;6.808;2023-09-18T03:01:50;4.05;;;2.08;;
69877;SDS011;70037;51.190;6.808;2023-09-18T03:02:50;3.17;;;2.17;;
69877;SDS011;70037;51.190;6.808;2023-09-18T03:03:50;2.50;;;2.10;;
69877;SDS011;70037;51.190;6.808;2023-09-18T03:04:50;2.67;;;2.10;;
69877;SDS011;70037;51.190;6.808;2023-09-18T03:05:50;2.87;;;2.17;;
69877;SDS011;70037;51.190;6.808;2023-09-18T03:06:50;4.43;;;2.17;;
69877;SDS011;70037;51.190;6.808;2023-09-18T03:07:50;2.83;;;2.13;;
69877;SDS011;70037;51.190;6.808;2023-09-18T03:08:50;2.27;;;2.00;;
69877;SDS011;70037;51.190;6.808;2023-09-18T03:09:50;2.30;;;2.03;;
69877;SDS011;70037;51.190;6.808;2023-09-18T03:10:50;2.50;;;2.30;;
69877;SDS011;70037;51.190;6.808;2023-09-18T03:11:50;2.10;;;1.80;;
69877;SDS011;70037;51.190;6.808;2023-09-18T03:12:51;2.43;;;2.23;;
69877;SDS011;70037;51.190;6.808;2023-09-18T03:13:51;3.27;;;2.40;;
69877;SDS011;70037;51.190;6.808;2023-09-18T03:14:51;3.43;;;2.20;;
69877;SDS011;70037;51.190;6.808;2023-09-18T03:15:51;3.93;;;1.77;;
69877;SDS011;70037;51.190;6.808;2023-09-18T03:16:51;2.33;;;1.80;;
69877;SDS011;70037;51.190;6.808;2023-09-18T03:17:51;2.27;;;2.07;;
69877;SDS011;70037;51.190;6.808;2023-09-18T03:18:51;3.13;;;2.07;;
69877;SDS011;70037;51.190;6.808;2023-09-18T03:19:51;3.33;;;2.10;;
69877;SDS011;70037;51.190;6.808;2023-09-18T03:20:51;4.23;;;1.97;;
69877;SDS011;70037;51.190;6.808;2023-09-18T03:21:51;2.77;;;1.97;;
69877;SDS011;70037;51.190;6.808;2023-09-18T03:22:52;3.37;;;2.37;;
69877;SDS011;70037;51.190;6.808;2023-09-18T03:23:52;2.92;;;2.13;;
69877;SDS011;70037;51.190;6.808;2023-09-18T03:24:52;3.63;;;2.10;;
69877;SDS011;70037;51.190;6.808;2023-09-18T03:25:52;2.63;;;2.20;;
69877;SDS011;70037;51.190;6.808;2023-09-18T03:26:52;2.50;;;2.27;;
69877;SDS011;70037;51.190;6.808;2023-09-18T03:27:53;2.67;;;2.03;;
69877;SDS011;70037;51.190;6.808;2023-09-18T03:28:53;2.60;;;2.20;;
69877;SDS011;70037;51.190;6.808;2023-09-18T03:29:57;3.07;;;2.00;;
69877;SDS011;70037;51.190;6.808;2023-09-18T03:30:57;2.60;;;2.00;;
69877;SDS011;70037;51.190;6.808;2023-09-18T03:31:57;3.17;;;2.08;;
69877;SDS011;70037;51.190;6.808;2023-09-18T03:32:57;2.53;;;1.90;;
69877;SDS011;70037;51.190;6.808;2023-09-18T03:33:58;2.80;;;2.37;;
69877;SDS011;70037;51.190;6.808;2023-09-18T03:34:58;3.70;;;2.10;;
69877;SDS011;70037;51.190;6.808;2023-09-18T03:35:58;3.70;;;2.40;;
69877;SDS011;70037;51.190;6.808;2023-09-18T03:36:58;2.57;;;2.20;;
69877;SDS011;70037;51.190;6.808;2023-09-18T03:37:58;2.27;;;1.90;;
69877;SDS011;70037;51.190;6.808;2023-09-18T03:38:58;3.83;;;2.30;;
69877;SDS011;70037;51.190;6.808;2023-09-18T03:39:58;4.83;;;2.00;;
69877;SDS011;70037;51.190;6.808;2023-09-18T03:41:01;4.13;;;2.43;;
69877;SDS011;70037;51.190;6.808;2023-09-18T03:42:01;2.33;;;1.83;;
69877;SDS011;70037;51.190;6.808;2023-09-18T03:43:01;1.93;;;1.70;;
69877;SDS011;70037;51.190;6.808;2023-09-18T03:44:02;4.23;;;2.33;;
69877;SDS011;70037;51.190;6.808;2023-09-18T03:45:02;3.33;;;2.10;;
69877;SDS011;70037;51.190;6.808;2023-09-18T03:46:02;3.60;;;1.83;;
69877;SDS011;70037;51.190;6.808;2023-09-18T03:47:03;2.85;;;2.20;;
69877;SDS011;70037;51.190;6.808;2023-09-18T03:48:03;2.57;;;2.13;;
69877;SDS011;70037;51.190;6.808;2023-09-18T03:49:03;3.20;;;2.50;;
69877;SDS011;70037;51.190;6.808;2023-09-18T03:50:03;2.87;;;2.40;;
69877;SDS011;70037;51.190;6.808;2023-09-18T03:51:04;3.60;;;2.17;;
69877;SDS011;70037;51.190;6.808;2023-09-18T03:52:04;2.67;;;2.20;;
69877;SDS011;70037;51.190;6.808;2023-09-18T03:53:04;2.47;;;2.27;;
69877;SDS011;70037;51.190;6.808;2023-09-18T03:54:04;2.60;;;2.13;;
69877;SDS011;70037;51.190;6.808;2023-09-18T03:55:05;3.27;;;2.20;;
69877;SDS011;70037;51.190;6.808;2023-09-18T03:56:05;2.45;;;1.98;;
69877;SDS011;70037;51.190;6.808;2023-09-18T03:57:05;2.50;;;1.73;;
69877;SDS011;70037;51.190;6.808;2023-09-18T03:58:05;2.40;;;2.20;;
69877;SDS011;70037;51.190;6.808;2023-09-18T03:59:05;3.10;;;2.23;;
69877;SDS011;70037;51.190;6.808;2023-09-18T04:00:06;3.73;;;2.50;;
69877;SDS011;70037;51.190;6.808;2023-09-18T04:01:07;2.45;;;2.08;;
69877;SDS011;70037;51.190;6.808;2023-09-18T04:02:07;2.83;;;2.40;;
69877;SDS011;70037;51.190;6.808;2023-09-18T04:03:07;2.60;;;2.30;;
69877;SDS011;70037;51.190;6.808;2023-09-18T04:04:07;2.90;;;2.40;;
69877;SDS011;70037;51.190;6.808;2023-09-18T04:05:07;2.50;;;2.13;;
69877;SDS011;70037;51.190;6.808;2023-09-18T04:06:07;2.40;;;1.83;;
69877;SDS011;70037;51.190;6.808;2023-09-18T04:07:08;2.37;;;2.10;;
69877;SDS011;70037;51.190;6.808;2023-09-18T04:08:08;4.13;;;2.22;;
69877;SDS011;70037;51.190;6.808;2023-09-18T04:09:09;2.70;;;2.13;;
69877;SDS011;70037;51.190;6.808;2023-09-18T04:10:09;2.23;;;1.97;;
69877;SDS011;70037;51.190;6.808;2023-09-18T04:11:09;3.00;;;2.10;;
69877;SDS011;70037;51.190;6.808;2023-09-18T04:12:09;2.03;;;1.80;;
69877;SDS011;70037;51.190;6.808;2023-09-18T04:13:10;2.47;;;2.07;;
69877;SDS011;70037;51.190;6.808;2023-09-18T04:14:10;3.80;;;2.10;;
69877;SDS011;70037;51.190;6.808;2023-09-18T04:15:10;2.60;;;2.27;;
69877;SDS011;70037;51.190;6.808;2023-09-18T04:16:10;2.50;;;1.83;;
69877;SDS011;70037;51.190;6.808;2023-09-18T04:17:10;3.13;;;2.10;;
69877;SDS011;70037;51.190;6.808;2023-09-18T04:18:10;2.57;;;1.93;;
69877;SDS011;70037;51.190;6.808;2023-09-18T04:19:10;2.70;;;1.97;;
69877;SDS011;70037;51.190;6.808;2023-09-18T04:20:11;3.67;;;2.40;;
69877;SDS011;70037;51.190;6.808;2023-09-18T04:21:11;3.97;;;2.50;;
69877;SDS011;70037;51.190;6.808;2023-09-18T04:22:12;3.40;;;2.20;;
69877;SDS011;70037;51.190;6.808;2023-09-18T04:23:19;2.78;;;2.35;;
69877;SDS011;70037;51.190;6.808;2023-09-18T04:24:19;4.60;;;2.30;;
69877;SDS011;70037;51.190;6.808;2023-09-18T04:25:19;3.87;;;1.93;;
69877;SDS011;70037;51.190;6.808;2023-09-18T04:26:19;4.27;;;2.27;;
69877;SDS011;70037;51.190;6.808;2023-09-18T04:27:20;4.90;;;2.57;;
69877;SDS011;70037;51.190;6.808;2023-09-18T04:28:20;4.80;;;3.00;;
69877;SDS011;70037;51.190;6.808;2023-09-18T04:29:21;9.35;;;3.53;;
69877;SDS011;70037;51.190;6.808;2023-09-18T04:30:21;9.00;;;3.50;;
69877;SDS011;70037;51.190;6.808;2023-09-18T04:31:21;9.93;;;3.70;;
69877;SDS011;70037;51.190;6.808;2023-09-18T04:32:21;9.43;;;3.67;;
69877;SDS011;70037;51.190;6.808;2023-09-18T04:33:21;14.93;;;4.43;;
69877;SDS011;70037;51.190;6.808;2023-09-18T04:34:21;8.27;;;3.50;;
69877;SDS011;70037;51.190;6.808;2023-09-18T04:35:21;7.57;;;3.50;;
69877;SDS011;70037;51.190;6.808;2023-09-18T04:36:21;9.10;;;3.70;;
69877;SDS011;70037;51.190;6.808;2023-09-18T04:37:21;10.43;;;3.90;;
69877;SDS011;70037;51.190;6.808;2023-09-18T04:38:22;10.97;;;3.80;;
69877;SDS011;70037;51.190;6.808;2023-09-18T04:39:22;10.13;;;3.57;;
69877;SDS011;70037;51.190;6.808;2023-09-18T04:40:22;9.20;;;3.70;;
69877;SDS011;70037;51.190;6.808;2023-09-18T04:41:22;13.93;;;4.10;;
69877;SDS011;70037;51.190;6.808;2023-09-18T04:42:22;10.10;;;4.37;;
69877;SDS011;70037;51.190;6.808;2023-09-18T04:43:22;8.37;;;3.73;;
69877;SDS011;70037;51.190;6.808;2023-09-18T04:44:22;13.07;;;4.40;;
69877;SDS011;70037;51.190;6.808;2023-09-18T04:45:22;10.47;;;4.00;;
69877;SDS011;70037;51.190;6.808;2023-09-18T04:46:22;12.10;;;4.23;;
69877;SDS011;70037;51.190;6.808;2023-09-18T04:47:22;10.83;;;4.00;;
69877;SDS011;70037;51.190;6.808;2023-09-18T04:48:22;9.40;;;3.57;;
69877;SDS011;70037;51.190;6.808;2023-09-18T04:49:23;10.40;;;3.50;;
69877;SDS011;70037;51.190;6.808;2023-09-18T04:50:23;10.63;;;3.83;;
69877;SDS011;70037;51.190;6.808;2023-09-18T04:51:23;11.63;;;3.60;;
69877;SDS011;70037;51.190;6.808;2023-09-18T04:52:23;9.87;;;3.80;;
69877;SDS011;70037;51.190;6.808;2023-09-18T04:53:23;8.27;;;3.60;;
69877;SDS011;70037;51.190;6.808;2023-09-18T04:54:23;11.77;;;3.53;;
69877;SDS011;70037;51.190;6.808;2023-09-18T04:55:23;11.67;;;4.20;;
69877;SDS011;70037;51.190;6.808;2023-09-18T04:56:24;11.67;;;3.90;;
69877;SDS011;70037;51.190;6.808;2023-09-18T04:57:24;9.70;;;3.90;;
69877;SDS011;70037;51.190;6.808;2023-09-18T04:58:24;14.03;;;4.03;;
69877;SDS011;70037;51.190;6.808;2023-09-18T04:59:24;11.07;;;4.40;;
69877;SDS011;70037;51.190;6.808;2023-09-18T05:00:24;9.23;;;3.83;;
69877;SDS011;70037;51.190;6.808;2023-09-18T05:01:24;11.60;;;4.17;;
69877;SDS011;70037;51.190;6.808;2023-09-18T05:02:24;14.97;;;4.23;;
69877;SDS011;70037;51.190;6.808;2023-09-18T05:03:25;8.53;;;3.50;;
69877;SDS011;70037;51.190;6.808;2023-09-18T05:04:25;9.63;;;4.03;;
69877;SDS011;70037;51.190;6.808;2023-09-18T05:05:25;9.23;;;3.77;;
69877;SDS011;70037;51.190;6.808;2023-09-18T05:06:25;11.87;;;4.33;;
69877;SDS011;70037;51.190;6.808;2023-09-18T05:07:25;7.40;;;3.47;;
69877;SDS011;70037;51.190;6.808;2023-09-18T05:08:25;8.07;;;3.97;;
69877;SDS011;70037;51.190;6.808;2023-09-18T05:09:25;9.00;;;3.80;;
69877;SDS011;70037;51.190;6.808;2023-09-18T05:10:26;19.47;;;4.43;;
69877;SDS011;70037;51.190;6.808;2023-09-18T05:11:26;14.90;;;4.23;;
69877;SDS011;70037;51.190;6.808;2023-09-18T05:12:26;11.77;;;3.63;;
69877;SDS011;70037;51.190;6.808;2023-09-18T05:13:26;16.00;;;4.63;;
69877;SDS011;70037;51.190;6.808;2023-09-18T05:14:26;10.13;;;4.07;;
69877;SDS011;70037;51.190;6.808;2023-09-18T05:15:26;11.00;;;3.93;;
69877;SDS011;70037;51.190;6.808;2023-09-18T05:16:26;13.40;;;4.73;;
69877;SDS011;70037;51.190;6.808;2023-09-18T05:17:42;10.43;;;4.03;;
69877;SDS011;70037;51.190;6.808;2023-09-18T05:18:43;11.95;;;3.80;;
69877;SDS011;70037;51.190;6.808;2023-09-18T05:19:43;10.70;;;4.07;;
69877;SDS011;70037;51.190;6.808;2023-09-18T05:20:44;7.57;;;3.42;;
69877;SDS011;70037;51.190;6.808;2023-09-18T05:21:44;12.75;;;4.32;;
69877;SDS011;70037;51.190;6.808;2023-09-18T05:22:45;12.00;;;3.40;;
69877;SDS011;70037;51.190;6.808;2023-09-18T05:23:45;11.13;;;3.58;;
69877;SDS011;70037;51.190;6.808;2023-09-18T05:24:45;14.53;;;3.80;;
69877;SDS011;70037;51.190;6.808;2023-09-18T05:25:45;15.43;;;4.20;;
69877;SDS011;70037;51.190;6.808;2023-09-18T05:26:45;14.23;;;4.33;;
69877;SDS011;70037;51.190;6.808;2023-09-18T05:27:45;8.00;;;4.03;;
69877;SDS011;70037;51.190;6.808;2023-09-18T05:28:45;14.10;;;3.87;;
69877;SDS011;70037;51.190;6.808;2023-09-18T05:29:45;13.60;;;4.30;;
69877;SDS011;70037;51.190;6.808;2023-09-18T05:30:45;7.57;;;3.80;;
69877;SDS011;70037;51.190;6.808;2023-09-18T05:31:46;10.13;;;3.20;;
69877;SDS011;70037;51.190;6.808;2023-09-18T05:32:46;8.83;;;3.73;;
69877;SDS011;70037;51.190;6.808;2023-09-18T05:33:46;8.57;;;3.30;;
69877;SDS011;70037;51.190;6.808;2023-09-18T05:34:46;10.47;;;3.70;;
69877;SDS011;70037;51.190;6.808;2023-09-18T05:35:46;8.03;;;3.37;;
69877;SDS011;70037;51.190;6.808;2023-09-18T05:36:46;14.10;;;4.03;;
69877;SDS011;70037;51.190;6.808;2023-09-18T05:37:46;9.43;;;3.30;;
69877;SDS011;70037;51.190;6.808;2023-09-18T05:38:47;11.15;;;3.65;;
69877;SDS011;70037;51.190;6.808;2023-09-18T05:39:47;12.27;;;3.53;;
69877;SDS011;70037;51.190;6.808;2023-09-18T05:40:47;10.87;;;3.00;;
69877;SDS011;70037;51.190;6.808;2023-09-18T05:41:47;9.93;;;3.23;;
69877;SDS011;70037;51.190;6.808;2023-09-18T05:42:47;9.77;;;3.90;;
69877;SDS011;70037;51.190;6.808;2023-09-18T05:43:47;10.90;;;3.57;;
69877;SDS011;70037;51.190;6.808;2023-09-18T05:44:47;10.20;;;3.07;;
69877;SDS011;70037;51.190;6.808;2023-09-18T05:45:47;8.20;;;3.17;;
69877;SDS011;70037;51.190;6.808;2023-09-18T05:46:47;20.67;;;3.47;;
69877;SDS011;70037;51.190;6.808;2023-09-18T05:47:48;8.87;;;3.20;;
69877;SDS011;70037;51.190;6.808;2023-09-18T05:48:48;11.27;;;3.38;;
69877;SDS011;70037;51.190;6.808;2023-09-18T05:49:48;9.60;;;3.10;;
69877;SDS011;70037;51.190;6.808;2023-09-18T05:50:48;10.73;;;3.13;;
69877;SDS011;70037;51.190;6.808;2023-09-18T05:51:48;6.53;;;2.97;;
69877;SDS011;70037;51.190;6.808;2023-09-18T05:52:48;12.37;;;3.70;;
69877;SDS011;70037;51.190;6.808;2023-09-18T05:53:49;7.23;;;2.97;;
69877;SDS011;70037;51.190;6.808;2023-09-18T05:54:49;9.20;;;2.90;;
69877;SDS011;70037;51.190;6.808;2023-09-18T05:55:49;9.63;;;3.42;;
69877;SDS011;70037;51.190;6.808;2023-09-18T05:56:49;8.57;;;3.40;;
69877;SDS011;70037;51.190;6.808;2023-09-18T05:57:49;11.30;;;3.50;;
69877;SDS011;70037;51.190;6.808;2023-09-18T05:58:49;9.03;;;3.43;;
69877;SDS011;70037;51.190;6.808;2023-09-18T05:59:49;8.27;;;2.77;;
69877;SDS011;70037;51.190;6.808;2023-09-18T06:00:49;9.33;;;3.13;;
69877;SDS011;70037;51.190;6.808;2023-09-18T06:01:50;10.13;;;3.00;;
69877;SDS011;70037;51.190;6.808;2023-09-18T06:02:50;10.10;;;3.13;;
69877;SDS011;70037;51.190;6.808;2023-09-18T06:03:50;10.23;;;2.87;;
69877;SDS011;70037;51.190;6.808;2023-09-18T06:04:56;8.80;;;2.90;;
69877;SDS011;70037;51.190;6.808;2023-09-18T06:05:57;7.50;;;3.00;;